sensor_id;sensor_type;location;lat;lon;timestamp;P1;durP1;ratioP1;P2;durP2;ratioP2
29538;SDS011;16482;51.046;4.498;2023-09-19T00:01:47;5.68;;;2.50;;
29538;SDS011;16482;51.046;4.498;2023-09-19T00:04:13;6.47;;;2.55;;
29538;SDS011;16482;51.046;4.498;2023-09-19T00:06:39;5.88;;;2.45;;
29538;SDS011;16482;51.046;4.498;2023-09-19T00:09:05;6.45;;;2.63;;
29538;SDS011;16482;51.046;4.498;2023-09-19T00:11:36;5.72;;;2.40;;
29538;SDS011;16482;51.046;4.498;2023-09-19T00:14:03;5.63;;;2.53;;
29538;SDS011;16482;51.046;4.498;2023-09-19T00:16:33;5.90;;;2.63;;
29538;SDS011;16482;51.046;4.498;2023-09-19T00:18:59;7.80;;;2.78;;
29538;SDS011;16482;51.046;4.498;2023-09-19T00:21:31;4.75;;;2.10;;
29538;SDS011;16482;51.046;4.498;2023-09-19T00:23:57;6.95;;;2.65;;
29538;SDS011;16482;51.046;4.498;2023-09-19T00:26:23;6.82;;;2.83;;
29538;SDS011;16482;51.046;4.498;2023-09-19T00:28:57;5.78;;;2.30;;
29538;SDS011;16482;51.046;4.498;2023-09-19T00:31:33;6.05;;;2.50;;
29538;SDS011;16482;51.046;4.498;2023-09-19T00:34:02;5.20;;;2.17;;
29538;SDS011;16482;51.046;4.498;2023-09-19T00:36:29;6.00;;;2.20;;
29538;SDS011;16482;51.046;4.498;2023-09-19T00:38:58;5.30;;;2.35;;
29538;SDS011;16482;51.046;4.498;2023-09-19T00:41:28;5.85;;;2.72;;
29538;SDS011;16482;51.046;4.498;2023-09-19T00:43:56;5.38;;;2.47;;
29538;SDS011;16482;51.046;4.498;2023-09-19T00:46:28;5.25;;;2.47;;
29538;SDS011;16482;51.046;4.498;2023-09-19T00:48:57;5.65;;;2.33;;
29538;SDS011;16482;51.046;4.498;2023-09-19T00:51:26;6.38;;;2.58;;
29538;SDS011;16482;51.046;4.498;2023-09-19T00:53:52;5.40;;;2.45;;
29538;SDS011;16482;51.046;4.498;2023-09-19T00:56:24;7.65;;;2.22;;
29538;SDS011;16482;51.046;4.498;2023-09-19T00:58:50;5.25;;;2.67;;
29538;SDS011;16482;51.046;4.498;2023-09-19T01:01:18;7.25;;;2.80;;
29538;SDS011;16482;51.046;4.498;2023-09-19T01:03:45;5.45;;;2.28;;
29538;SDS011;16482;51.046;4.498;2023-09-19T01:06:13;5.82;;;2.83;;
29538;SDS011;16482;51.046;4.498;2023-09-19T01:08:39;6.47;;;2.33;;
29538;SDS011;16482;51.046;4.498;2023-09-19T01:16:42;4.57;;;2.10;;
29538;SDS011;16482;51.046;4.498;2023-09-19T01:27:23;6.78;;;2.33;;
29538;SDS011;16482;51.046;4.498;2023-09-19T01:29:51;3.90;;;2.25;;
29538;SDS011;16482;51.046;4.498;2023-09-19T01:32:26;7.78;;;2.80;;
29538;SDS011;16482;51.046;4.498;2023-09-19T01:34:55;4.65;;;2.15;;
29538;SDS011;16482;51.046;4.498;2023-09-19T01:37:24;5.32;;;2.50;;
29538;SDS011;16482;51.046;4.498;2023-09-19T01:40:09;5.47;;;2.60;;
29538;SDS011;16482;51.046;4.498;2023-09-19T01:42:44;7.60;;;2.63;;
29538;SDS011;16482;51.046;4.498;2023-09-19T01:45:35;5.65;;;2.28;;
29538;SDS011;16482;51.046;4.498;2023-09-19T01:50:45;6.80;;;2.88;;
29538;SDS011;16482;51.046;4.498;2023-09-19T01:53:30;6.30;;;2.22;;
29538;SDS011;16482;51.046;4.498;2023-09-19T01:56:00;4.43;;;2.17;;
29538;SDS011;16482;51.046;4.498;2023-09-19T01:58:47;6.32;;;2.42;;
29538;SDS011;16482;51.046;4.498;2023-09-19T02:01:17;4.70;;;1.80;;
29538;SDS011;16482;51.046;4.498;2023-09-19T02:03:57;6.18;;;2.40;;
29538;SDS011;16482;51.046;4.498;2023-09-19T02:06:26;3.83;;;2.35;;
29538;SDS011;16482;51.046;4.498;2023-09-19T02:08:52;5.82;;;2.33;;
29538;SDS011;16482;51.046;4.498;2023-09-19T02:11:19;5.68;;;2.28;;
29538;SDS011;16482;51.046;4.498;2023-09-19T02:13:45;4.50;;;2.05;;
29538;SDS011;16482;51.046;4.498;2023-09-19T02:16:11;5.35;;;2.63;;
29538;SDS011;16482;51.046;4.498;2023-09-19T02:18:37;5.60;;;2.60;;
29538;SDS011;16482;51.046;4.498;2023-09-19T02:21:04;5.07;;;2.20;;
29538;SDS011;16482;51.046;4.498;2023-09-19T02:23:32;6.47;;;2.75;;
29538;SDS011;16482;51.046;4.498;2023-09-19T02:25:58;7.38;;;2.65;;
29538;SDS011;16482;51.046;4.498;2023-09-19T02:28:29;4.90;;;2.20;;
29538;SDS011;16482;51.046;4.498;2023-09-19T02:30:57;7.85;;;3.17;;
29538;SDS011;16482;51.046;4.498;2023-09-19T02:33:26;6.07;;;2.78;;
29538;SDS011;16482;51.046;4.498;2023-09-19T02:35:55;6.55;;;2.72;;
29538;SDS011;16482;51.046;4.498;2023-09-19T02:38:26;8.70;;;2.55;;
29538;SDS011;16482;51.046;4.498;2023-09-19T02:40:52;5.22;;;2.38;;
29538;SDS011;16482;51.046;4.498;2023-09-19T02:43:20;6.57;;;2.67;;
29538;SDS011;16482;51.046;4.498;2023-09-19T02:45:50;5.65;;;2.50;;
29538;SDS011;16482;51.046;4.498;2023-09-19T02:48:20;5.80;;;2.42;;
29538;SDS011;16482;51.046;4.498;2023-09-19T02:50:46;7.90;;;2.47;;
29538;SDS011;16482;51.046;4.498;2023-09-19T02:53:17;5.43;;;2.30;;
29538;SDS011;16482;51.046;4.498;2023-09-19T02:55:44;4.80;;;2.30;;
29538;SDS011;16482;51.046;4.498;2023-09-19T02:58:10;5.97;;;2.50;;
29538;SDS011;16482;51.046;4.498;2023-09-19T03:00:39;5.53;;;2.50;;
29538;SDS011;16482;51.046;4.498;2023-09-19T03:03:07;5.80;;;2.42;;
29538;SDS011;16482;51.046;4.498;2023-09-19T03:05:33;6.53;;;2.65;;
29538;SDS011;16482;51.046;4.498;2023-09-19T03:08:00;7.25;;;2.85;;
29538;SDS011;16482;51.046;4.498;2023-09-19T03:10:26;5.75;;;2.40;;
29538;SDS011;16482;51.046;4.498;2023-09-19T03:12:55;5.28;;;2.35;;
29538;SDS011;16482;51.046;4.498;2023-09-19T03:15:24;7.80;;;2.70;;
29538;SDS011;16482;51.046;4.498;2023-09-19T03:17:50;6.07;;;2.75;;
29538;SDS011;16482;51.046;4.498;2023-09-19T03:20:18;7.03;;;2.67;;
29538;SDS011;16482;51.046;4.498;2023-09-19T03:22:46;5.25;;;2.40;;
29538;SDS011;16482;51.046;4.498;2023-09-19T03:25:14;5.47;;;2.60;;
29538;SDS011;16482;51.046;4.498;2023-09-19T03:27:42;5.00;;;2.33;;
29538;SDS011;16482;51.046;4.498;2023-09-19T03:30:08;6.88;;;2.63;;
29538;SDS011;16482;51.046;4.498;2023-09-19T03:32:34;6.00;;;2.50;;
29538;SDS011;16482;51.046;4.498;2023-09-19T03:35:01;5.43;;;2.30;;
29538;SDS011;16482;51.046;4.498;2023-09-19T03:37:30;7.80;;;2.90;;
29538;SDS011;16482;51.046;4.498;2023-09-19T03:39:56;5.45;;;2.60;;
29538;SDS011;16482;51.046;4.498;2023-09-19T03:42:22;6.43;;;2.70;;
29538;SDS011;16482;51.046;4.498;2023-09-19T03:44:51;7.13;;;2.55;;
29538;SDS011;16482;51.046;4.498;2023-09-19T03:47:17;6.30;;;2.40;;
29538;SDS011;16482;51.046;4.498;2023-09-19T03:49:46;5.03;;;2.42;;
29538;SDS011;16482;51.046;4.498;2023-09-19T03:52:13;5.25;;;2.20;;
29538;SDS011;16482;51.046;4.498;2023-09-19T03:54:41;6.75;;;2.67;;
29538;SDS011;16482;51.046;4.498;2023-09-19T03:57:08;6.07;;;2.85;;
29538;SDS011;16482;51.046;4.498;2023-09-19T03:59:33;4.85;;;2.15;;
29538;SDS011;16482;51.046;4.498;2023-09-19T04:02:00;6.78;;;2.50;;
29538;SDS011;16482;51.046;4.498;2023-09-19T04:04:27;5.28;;;2.25;;
29538;SDS011;16482;51.046;4.498;2023-09-19T04:06:54;5.60;;;2.58;;
29538;SDS011;16482;51.046;4.498;2023-09-19T04:09:20;6.15;;;2.65;;
29538;SDS011;16482;51.046;4.498;2023-09-19T04:11:46;5.93;;;2.40;;
29538;SDS011;16482;51.046;4.498;2023-09-19T04:14:12;6.75;;;2.60;;
29538;SDS011;16482;51.046;4.498;2023-09-19T04:16:37;5.13;;;2.20;;
29538;SDS011;16482;51.046;4.498;2023-09-19T04:19:04;5.68;;;2.17;;
29538;SDS011;16482;51.046;4.498;2023-09-19T04:21:30;6.45;;;2.65;;
29538;SDS011;16482;51.046;4.498;2023-09-19T04:23:57;6.82;;;2.70;;
29538;SDS011;16482;51.046;4.498;2023-09-19T04:26:22;4.80;;;2.25;;
29538;SDS011;16482;51.046;4.498;2023-09-19T04:28:51;7.35;;;2.67;;
29538;SDS011;16482;51.046;4.498;2023-09-19T04:31:17;6.03;;;2.28;;
29538;SDS011;16482;51.046;4.498;2023-09-19T04:33:44;5.93;;;2.45;;
29538;SDS011;16482;51.046;4.498;2023-09-19T04:36:10;6.80;;;2.60;;
29538;SDS011;16482;51.046;4.498;2023-09-19T04:38:38;5.32;;;2.38;;
29538;SDS011;16482;51.046;4.498;2023-09-19T04:41:04;5.10;;;2.33;;
29538;SDS011;16482;51.046;4.498;2023-09-19T04:43:29;5.78;;;2.53;;
29538;SDS011;16482;51.046;4.498;2023-09-19T04:45:55;8.73;;;2.65;;
29538;SDS011;16482;51.046;4.498;2023-09-19T04:48:24;6.65;;;2.38;;
29538;SDS011;16482;51.046;4.498;2023-09-19T04:50:49;6.03;;;2.25;;
29538;SDS011;16482;51.046;4.498;2023-09-19T04:53:16;7.05;;;2.40;;
29538;SDS011;16482;51.046;4.498;2023-09-19T04:55:50;6.60;;;2.30;;
29538;SDS011;16482;51.046;4.498;2023-09-19T04:58:17;4.72;;;2.33;;
29538;SDS011;16482;51.046;4.498;2023-09-19T05:00:45;3.97;;;2.08;;
29538;SDS011;16482;51.046;4.498;2023-09-19T05:03:11;7.07;;;2.67;;
29538;SDS011;16482;51.046;4.498;2023-09-19T05:05:39;6.97;;;2.58;;
29538;SDS011;16482;51.046;4.498;2023-09-19T05:08:07;4.80;;;2.30;;
29538;SDS011;16482;51.046;4.498;2023-09-19T05:10:34;7.20;;;2.55;;
29538;SDS011;16482;51.046;4.498;2023-09-19T05:13:10;5.28;;;2.38;;
29538;SDS011;16482;51.046;4.498;2023-09-19T05:15:39;6.00;;;2.75;;
29538;SDS011;16482;51.046;4.498;2023-09-19T05:18:10;6.75;;;2.50;;
29538;SDS011;16482;51.046;4.498;2023-09-19T05:20:36;5.13;;;2.47;;
29538;SDS011;16482;51.046;4.498;2023-09-19T05:23:04;6.78;;;2.55;;
29538;SDS011;16482;51.046;4.498;2023-09-19T05:25:34;6.75;;;2.83;;
29538;SDS011;16482;51.046;4.498;2023-09-19T05:28:07;6.65;;;2.22;;
29538;SDS011;16482;51.046;4.498;2023-09-19T05:30:34;5.30;;;2.20;;
29538;SDS011;16482;51.046;4.498;2023-09-19T05:33:05;3.92;;;2.17;;
29538;SDS011;16482;51.046;4.498;2023-09-19T05:35:31;5.95;;;2.30;;
29538;SDS011;16482;51.046;4.498;2023-09-19T05:37:57;6.22;;;2.70;;
29538;SDS011;16482;51.046;4.498;2023-09-19T05:40:24;6.25;;;2.30;;
29538;SDS011;16482;51.046;4.498;2023-09-19T05:42:50;6.32;;;2.40;;
29538;SDS011;16482;51.046;4.498;2023-09-19T05:45:16;6.40;;;2.60;;
29538;SDS011;16482;51.046;4.498;2023-09-19T05:47:49;8.25;;;2.80;;
29538;SDS011;16482;51.046;4.498;2023-09-19T05:50:19;5.70;;;2.33;;
29538;SDS011;16482;51.046;4.498;2023-09-19T05:52:51;5.45;;;2.30;;
29538;SDS011;16482;51.046;4.498;2023-09-19T05:55:17;7.85;;;2.60;;
29538;SDS011;16482;51.046;4.498;2023-09-19T05:57:48;6.47;;;2.50;;
29538;SDS011;16482;51.046;4.498;2023-09-19T06:00:20;8.15;;;2.80;;
29538;SDS011;16482;51.046;4.498;2023-09-19T06:02:53;4.57;;;2.35;;
29538;SDS011;16482;51.046;4.498;2023-09-19T06:05:19;7.07;;;2.70;;
29538;SDS011;16482;51.046;4.498;2023-09-19T06:07:46;6.30;;;2.80;;
29538;SDS011;16482;51.046;4.498;2023-09-19T06:10:12;6.72;;;2.80;;
29538;SDS011;16482;51.046;4.498;2023-09-19T06:12:40;6.95;;;2.83;;
29538;SDS011;16482;51.046;4.498;2023-09-19T06:15:10;5.97;;;2.20;;
29538;SDS011;16482;51.046;4.498;2023-09-19T06:17:48;6.57;;;2.60;;
29538;SDS011;16482;51.046;4.498;2023-09-19T06:20:15;4.90;;;2.38;;
29538;SDS011;16482;51.046;4.498;2023-09-19T06:22:45;6.05;;;2.42;;
29538;SDS011;16482;51.046;4.498;2023-09-19T06:25:11;7.28;;;2.58;;
29538;SDS011;16482;51.046;4.498;2023-09-19T06:27:41;5.05;;;2.50;;
29538;SDS011;16482;51.046;4.498;2023-09-19T06:30:08;5.25;;;2.15;;
29538;SDS011;16482;51.046;4.498;2023-09-19T06:32:34;6.40;;;2.50;;
29538;SDS011;16482;51.046;4.498;2023-09-19T06:35:01;5.63;;;2.13;;
29538;SDS011;16482;51.046;4.498;2023-09-19T06:37:28;4.57;;;2.30;;
29538;SDS011;16482;51.046;4.498;2023-09-19T06:39:54;6.45;;;2.58;;
29538;SDS011;16482;51.046;4.498;2023-09-19T06:42:23;5.43;;;2.38;;
29538;SDS011;16482;51.046;4.498;2023-09-19T06:44:49;5.88;;;2.90;;
29538;SDS011;16482;51.046;4.498;2023-09-19T06:47:21;8.25;;;3.00;;
29538;SDS011;16482;51.046;4.498;2023-09-19T06:49:49;6.10;;;2.30;;
29538;SDS011;16482;51.046;4.498;2023-09-19T06:52:20;5.90;;;2.30;;
29538;SDS011;16482;51.046;4.498;2023-09-19T06:54:49;7.50;;;2.47;;
29538;SDS011;16482;51.046;4.498;2023-09-19T06:57:20;7.97;;;2.50;;
29538;SDS011;16482;51.046;4.498;2023-09-19T06:59:46;4.43;;;2.38;;
29538;SDS011;16482;51.046;4.498;2023-09-19T07:02:19;4.95;;;2.20;;
29538;SDS011;16482;51.046;4.498;2023-09-19T07:04:49;6.22;;;2.20;;
29538;SDS011;16482;51.046;4.498;2023-09-19T07:07:15;6.57;;;2.35;;
29538;SDS011;16482;51.046;4.498;2023-09-19T07:09:49;5.15;;;2.30;;
29538;SDS011;16482;51.046;4.498;2023-09-19T07:12:16;7.60;;;2.70;;
29538;SDS011;16482;51.046;4.498;2023-09-19T07:14:43;8.70;;;2.67;;
29538;SDS011;16482;51.046;4.498;2023-09-19T07:17:09;5.07;;;2.25;;
29538;SDS011;16482;51.046;4.498;2023-09-19T07:19:34;4.65;;;2.22;;
29538;SDS011;16482;51.046;4.498;2023-09-19T07:22:00;6.00;;;2.70;;
29538;SDS011;16482;51.046;4.498;2023-09-19T07:24:29;5.38;;;2.00;;
29538;SDS011;16482;51.046;4.498;2023-09-19T07:26:56;5.40;;;2.60;;
29538;SDS011;16482;51.046;4.498;2023-09-19T07:29:22;7.72;;;2.88;;
29538;SDS011;16482;51.046;4.498;2023-09-19T07:31:48;5.57;;;2.65;;
29538;SDS011;16482;51.046;4.498;2023-09-19T07:34:15;5.85;;;2.42;;
29538;SDS011;16482;51.046;4.498;2023-09-19T07:36:41;8.00;;;2.47;;
29538;SDS011;16482;51.046;4.498;2023-09-19T07:39:07;4.32;;;2.17;;
29538;SDS011;16482;51.046;4.498;2023-09-19T07:41:33;5.25;;;2.40;;
29538;SDS011;16482;51.046;4.498;2023-09-19T07:43:59;5.75;;;2.50;;
29538;SDS011;16482;51.046;4.498;2023-09-19T07:46:25;6.75;;;2.75;;
29538;SDS011;16482;51.046;4.498;2023-09-19T07:48:51;6.68;;;2.55;;
29538;SDS011;16482;51.046;4.498;2023-09-19T07:51:17;6.13;;;2.40;;
29538;SDS011;16482;51.046;4.498;2023-09-19T07:53:43;6.57;;;2.50;;
29538;SDS011;16482;51.046;4.498;2023-09-19T07:56:09;6.18;;;2.30;;
29538;SDS011;16482;51.046;4.498;2023-09-19T07:58:36;6.05;;;2.53;;
29538;SDS011;16482;51.046;4.498;2023-09-19T08:01:06;7.93;;;2.47;;
29538;SDS011;16482;51.046;4.498;2023-09-19T08:03:33;6.18;;;2.60;;
29538;SDS011;16482;51.046;4.498;2023-09-19T08:05:59;4.43;;;1.98;;
29538;SDS011;16482;51.046;4.498;2023-09-19T08:08:26;5.75;;;2.28;;
29538;SDS011;16482;51.046;4.498;2023-09-19T08:10:55;6.13;;;2.50;;
29538;SDS011;16482;51.046;4.498;2023-09-19T08:13:25;10.93;;;2.90;;
29538;SDS011;16482;51.046;4.498;2023-09-19T08:15:51;4.53;;;2.08;;
29538;SDS011;16482;51.046;4.498;2023-09-19T08:18:20;7.72;;;2.60;;
29538;SDS011;16482;51.046;4.498;2023-09-19T08:20:49;5.95;;;2.47;;
29538;SDS011;16482;51.046;4.498;2023-09-19T08:23:16;6.18;;;2.78;;
29538;SDS011;16482;51.046;4.498;2023-09-19T08:25:45;7.20;;;2.47;;
29538;SDS011;16482;51.046;4.498;2023-09-19T08:28:11;7.25;;;2.67;;
29538;SDS011;16482;51.046;4.498;2023-09-19T08:30:39;6.15;;;2.60;;
29538;SDS011;16482;51.046;4.498;2023-09-19T08:33:07;4.78;;;1.98;;
29538;SDS011;16482;51.046;4.498;2023-09-19T08:35:33;8.85;;;2.80;;
29538;SDS011;16482;51.046;4.498;2023-09-19T08:38:00;9.48;;;2.75;;
29538;SDS011;16482;51.046;4.498;2023-09-19T08:40:29;6.45;;;2.55;;
29538;SDS011;16482;51.046;4.498;2023-09-19T08:42:58;7.63;;;2.55;;
29538;SDS011;16482;51.046;4.498;2023-09-19T08:45:26;8.35;;;3.00;;
29538;SDS011;16482;51.046;4.498;2023-09-19T08:50:52;7.78;;;2.42;;
29538;SDS011;16482;51.046;4.498;2023-09-19T08:53:41;9.93;;;3.03;;
29538;SDS011;16482;51.046;4.498;2023-09-19T08:56:13;8.13;;;2.30;;
29538;SDS011;16482;51.046;4.498;2023-09-19T08:58:48;6.47;;;2.45;;
29538;SDS011;16482;51.046;4.498;2023-09-19T09:01:20;8.05;;;2.70;;
29538;SDS011;16482;51.046;4.498;2023-09-19T09:06:22;9.63;;;3.42;;
29538;SDS011;16482;51.046;4.498;2023-09-19T09:08:52;11.50;;;3.17;;
29538;SDS011;16482;51.046;4.498;2023-09-19T09:11:28;12.63;;;4.18;;
29538;SDS011;16482;51.046;4.498;2023-09-19T09:13:54;8.13;;;3.70;;
29538;SDS011;16482;51.046;4.498;2023-09-19T09:16:23;12.15;;;3.85;;
29538;SDS011;16482;51.046;4.498;2023-09-19T09:18:50;10.40;;;3.90;;
29538;SDS011;16482;51.046;4.498;2023-09-19T09:21:19;11.48;;;4.20;;
29538;SDS011;16482;51.046;4.498;2023-09-19T09:23:46;8.85;;;3.58;;
29538;SDS011;16482;51.046;4.498;2023-09-19T09:26:13;11.10;;;4.60;;
29538;SDS011;16482;51.046;4.498;2023-09-19T09:28:46;10.85;;;3.97;;
29538;SDS011;16482;51.046;4.498;2023-09-19T09:31:24;10.43;;;3.92;;
29538;SDS011;16482;51.046;4.498;2023-09-19T09:33:54;12.20;;;4.03;;
29538;SDS011;16482;51.046;4.498;2023-09-19T09:36:35;12.15;;;3.65;;
29538;SDS011;16482;51.046;4.498;2023-09-19T09:39:02;8.52;;;3.17;;
29538;SDS011;16482;51.046;4.498;2023-09-19T09:41:44;9.07;;;3.53;;
29538;SDS011;16482;51.046;4.498;2023-09-19T09:44:16;10.40;;;3.90;;
29538;SDS011;16482;51.046;4.498;2023-09-19T09:46:44;6.80;;;3.17;;
29538;SDS011;16482;51.046;4.498;2023-09-19T09:49:27;8.73;;;3.55;;
29538;SDS011;16482;51.046;4.498;2023-09-19T09:51:59;9.48;;;3.70;;
29538;SDS011;16482;51.046;4.498;2023-09-19T09:54:33;9.20;;;3.53;;
29538;SDS011;16482;51.046;4.498;2023-09-19T09:57:06;10.13;;;3.40;;
29538;SDS011;16482;51.046;4.498;2023-09-19T10:02:30;9.27;;;3.30;;
29538;SDS011;16482;51.046;4.498;2023-09-19T10:05:15;8.98;;;3.80;;
29538;SDS011;16482;51.046;4.498;2023-09-19T10:08:10;9.40;;;3.55;;
29538;SDS011;16482;51.046;4.498;2023-09-19T10:10:43;7.43;;;3.85;;
29538;SDS011;16482;51.046;4.498;2023-09-19T10:13:19;8.52;;;3.33;;
29538;SDS011;16482;51.046;4.498;2023-09-19T10:15:51;12.55;;;3.30;;
29538;SDS011;16482;51.046;4.498;2023-09-19T10:18:20;9.63;;;3.13;;
29538;SDS011;16482;51.046;4.498;2023-09-19T10:20:48;6.03;;;2.78;;
29538;SDS011;16482;51.046;4.498;2023-09-19T10:23:17;7.68;;;3.03;;
29538;SDS011;16482;51.046;4.498;2023-09-19T10:25:51;11.43;;;3.13;;
29538;SDS011;16482;51.046;4.498;2023-09-19T10:28:18;6.63;;;3.20;;
29538;SDS011;16482;51.046;4.498;2023-09-19T10:30:48;5.80;;;2.60;;
29538;SDS011;16482;51.046;4.498;2023-09-19T10:33:19;7.25;;;3.30;;
29538;SDS011;16482;51.046;4.498;2023-09-19T10:35:47;6.03;;;2.60;;
29538;SDS011;16482;51.046;4.498;2023-09-19T10:38:19;7.28;;;2.78;;
29538;SDS011;16482;51.046;4.498;2023-09-19T10:40:49;8.27;;;2.92;;
29538;SDS011;16482;51.046;4.498;2023-09-19T10:43:20;6.30;;;2.45;;
29538;SDS011;16482;51.046;4.498;2023-09-19T10:45:47;5.75;;;2.40;;
29538;SDS011;16482;51.046;4.498;2023-09-19T10:48:14;5.10;;;2.20;;
29538;SDS011;16482;51.046;4.498;2023-09-19T10:53:44;5.57;;;2.15;;
29538;SDS011;16482;51.046;4.498;2023-09-19T10:56:24;4.07;;;2.10;;
29538;SDS011;16482;51.046;4.498;2023-09-19T11:01:44;8.50;;;2.40;;
29538;SDS011;16482;51.046;4.498;2023-09-19T11:15:02;5.05;;;2.10;;
29538;SDS011;16482;51.046;4.498;2023-09-19T11:17:42;6.25;;;2.00;;
29538;SDS011;16482;51.046;4.498;2023-09-19T11:20:18;6.47;;;2.33;;
29538;SDS011;16482;51.046;4.498;2023-09-19T11:30:51;6.20;;;2.28;;
29538;SDS011;16482;51.046;4.498;2023-09-19T11:43:51;5.90;;;1.63;;
29538;SDS011;16482;51.046;4.498;2023-09-19T11:46:19;5.38;;;1.80;;
29538;SDS011;16482;51.046;4.498;2023-09-19T11:48:51;4.13;;;2.03;;
29538;SDS011;16482;51.046;4.498;2023-09-19T11:51:18;4.20;;;1.80;;
29538;SDS011;16482;51.046;4.498;2023-09-19T11:53:49;6.03;;;2.50;;
29538;SDS011;16482;51.046;4.498;2023-09-19T11:56:19;3.03;;;1.67;;
29538;SDS011;16482;51.046;4.498;2023-09-19T11:58:51;5.93;;;1.97;;
29538;SDS011;16482;51.046;4.498;2023-09-19T12:01:23;5.03;;;1.77;;
29538;SDS011;16482;51.046;4.498;2023-09-19T12:03:54;5.65;;;2.00;;
29538;SDS011;16482;51.046;4.498;2023-09-19T12:06:24;3.33;;;1.80;;
29538;SDS011;16482;51.046;4.498;2023-09-19T12:08:58;4.50;;;1.90;;
29538;SDS011;16482;51.046;4.498;2023-09-19T12:11:26;4.28;;;1.80;;
29538;SDS011;16482;51.046;4.498;2023-09-19T12:14:01;4.45;;;1.92;;
29538;SDS011;16482;51.046;4.498;2023-09-19T12:16:30;4.50;;;1.77;;
29538;SDS011;16482;51.046;4.498;2023-09-19T12:18:58;3.42;;;1.60;;
29538;SDS011;16482;51.046;4.498;2023-09-19T12:21:52;3.05;;;1.63;;
29538;SDS011;16482;51.046;4.498;2023-09-19T12:24:19;3.03;;;1.55;;
29538;SDS011;16482;51.046;4.498;2023-09-19T12:26:46;6.03;;;1.70;;
29538;SDS011;16482;51.046;4.498;2023-09-19T12:29:20;5.13;;;1.60;;
29538;SDS011;16482;51.046;4.498;2023-09-19T12:31:50;3.55;;;1.70;;
29538;SDS011;16482;51.046;4.498;2023-09-19T12:34:19;4.63;;;1.75;;
29538;SDS011;16482;51.046;4.498;2023-09-19T12:36:46;2.72;;;1.33;;
29538;SDS011;16482;51.046;4.498;2023-09-19T12:39:22;3.50;;;1.67;;
29538;SDS011;16482;51.046;4.498;2023-09-19T12:41:50;4.95;;;2.10;;
29538;SDS011;16482;51.046;4.498;2023-09-19T12:44:17;5.65;;;1.80;;
29538;SDS011;16482;51.046;4.498;2023-09-19T12:46:43;5.15;;;1.65;;
29538;SDS011;16482;51.046;4.498;2023-09-19T12:49:19;5.47;;;2.00;;
29538;SDS011;16482;51.046;4.498;2023-09-19T12:51:46;2.88;;;1.55;;
29538;SDS011;16482;51.046;4.498;2023-09-19T12:54:13;3.83;;;1.48;;
29538;SDS011;16482;51.046;4.498;2023-09-19T12:56:42;5.88;;;1.80;;
29538;SDS011;16482;51.046;4.498;2023-09-19T12:59:09;4.35;;;1.65;;
29538;SDS011;16482;51.046;4.498;2023-09-19T13:01:40;2.80;;;1.67;;
29538;SDS011;16482;51.046;4.498;2023-09-19T13:04:17;5.30;;;1.52;;
29538;SDS011;16482;51.046;4.498;2023-09-19T13:06:45;3.92;;;1.52;;
29538;SDS011;16482;51.046;4.498;2023-09-19T13:09:13;2.15;;;1.30;;
29538;SDS011;16482;51.046;4.498;2023-09-19T13:11:41;3.88;;;1.45;;
29538;SDS011;16482;51.046;4.498;2023-09-19T13:14:13;3.88;;;1.60;;
29538;SDS011;16482;51.046;4.498;2023-09-19T13:16:55;5.43;;;1.55;;
29538;SDS011;16482;51.046;4.498;2023-09-19T13:19:50;2.63;;;1.30;;
29538;SDS011;16482;51.046;4.498;2023-09-19T13:25:09;3.47;;;1.42;;
29538;SDS011;16482;51.046;4.498;2023-09-19T13:27:40;4.55;;;1.45;;
29538;SDS011;16482;51.046;4.498;2023-09-19T13:30:07;3.85;;;1.40;;
29538;SDS011;16482;51.046;4.498;2023-09-19T13:32:34;2.80;;;1.20;;
29538;SDS011;16482;51.046;4.498;2023-09-19T13:35:00;2.95;;;1.30;;
29538;SDS011;16482;51.046;4.498;2023-09-19T13:37:28;4.43;;;1.30;;
29538;SDS011;16482;51.046;4.498;2023-09-19T13:39:54;2.75;;;1.30;;
29538;SDS011;16482;51.046;4.498;2023-09-19T13:42:24;4.00;;;1.35;;
29538;SDS011;16482;51.046;4.498;2023-09-19T13:44:50;2.67;;;1.40;;
29538;SDS011;16482;51.046;4.498;2023-09-19T13:47:19;3.85;;;1.65;;
29538;SDS011;16482;51.046;4.498;2023-09-19T13:49:52;4.68;;;1.50;;
29538;SDS011;16482;51.046;4.498;2023-09-19T13:52:21;3.65;;;1.60;;
29538;SDS011;16482;51.046;4.498;2023-09-19T13:54:51;2.92;;;1.30;;
29538;SDS011;16482;51.046;4.498;2023-09-19T13:57:18;3.65;;;1.60;;
29538;SDS011;16482;51.046;4.498;2023-09-19T13:59:44;3.15;;;1.45;;
29538;SDS011;16482;51.046;4.498;2023-09-19T14:02:21;5.30;;;1.50;;
29538;SDS011;16482;51.046;4.498;2023-09-19T14:04:51;3.72;;;1.50;;
29538;SDS011;16482;51.046;4.498;2023-09-19T14:07:20;2.50;;;1.35;;
29538;SDS011;16482;51.046;4.498;2023-09-19T14:09:46;4.85;;;1.40;;
29538;SDS011;16482;51.046;4.498;2023-09-19T14:12:20;4.18;;;1.60;;
29538;SDS011;16482;51.046;4.498;2023-09-19T14:14:51;2.58;;;1.30;;
29538;SDS011;16482;51.046;4.498;2023-09-19T14:17:17;3.63;;;1.52;;
29538;SDS011;16482;51.046;4.498;2023-09-19T14:19:45;4.30;;;1.48;;
29538;SDS011;16482;51.046;4.498;2023-09-19T14:22:13;2.83;;;1.35;;
29538;SDS011;16482;51.046;4.498;2023-09-19T14:24:52;4.47;;;1.45;;
29538;SDS011;16482;51.046;4.498;2023-09-19T14:27:22;2.88;;;1.52;;
29538;SDS011;16482;51.046;4.498;2023-09-19T14:29:51;5.78;;;1.90;;
29538;SDS011;16482;51.046;4.498;2023-09-19T14:32:17;3.58;;;1.60;;
29538;SDS011;16482;51.046;4.498;2023-09-19T14:34:46;5.57;;;1.52;;
29538;SDS011;16482;51.046;4.498;2023-09-19T14:37:12;3.35;;;1.35;;
29538;SDS011;16482;51.046;4.498;2023-09-19T14:39:38;1.92;;;1.25;;
29538;SDS011;16482;51.046;4.498;2023-09-19T14:42:04;2.05;;;1.08;;
29538;SDS011;16482;51.046;4.498;2023-09-19T14:44:30;2.78;;;1.60;;
29538;SDS011;16482;51.046;4.498;2023-09-19T14:46:56;3.33;;;1.25;;
29538;SDS011;16482;51.046;4.498;2023-09-19T14:49:23;3.42;;;1.40;;
29538;SDS011;16482;51.046;4.498;2023-09-19T14:51:52;4.10;;;1.30;;
29538;SDS011;16482;51.046;4.498;2023-09-19T14:54:17;2.38;;;1.23;;
29538;SDS011;16482;51.046;4.498;2023-09-19T14:56:44;5.88;;;1.67;;
29538;SDS011;16482;51.046;4.498;2023-09-19T14:59:10;2.65;;;1.40;;
29538;SDS011;16482;51.046;4.498;2023-09-19T15:01:36;2.53;;;1.40;;
29538;SDS011;16482;51.046;4.498;2023-09-19T15:04:03;3.60;;;1.40;;
29538;SDS011;16482;51.046;4.498;2023-09-19T15:06:36;3.50;;;1.40;;
29538;SDS011;16482;51.046;4.498;2023-09-19T15:09:02;2.45;;;1.33;;
29538;SDS011;16482;51.046;4.498;2023-09-19T15:11:30;2.88;;;1.58;;
29538;SDS011;16482;51.046;4.498;2023-09-19T15:13:58;2.78;;;1.63;;
29538;SDS011;16482;51.046;4.498;2023-09-19T15:16:24;5.32;;;1.60;;
29538;SDS011;16482;51.046;4.498;2023-09-19T15:18:53;4.03;;;1.67;;
29538;SDS011;16482;51.046;4.498;2023-09-19T15:21:20;5.15;;;1.70;;
29538;SDS011;16482;51.046;4.498;2023-09-19T15:23:46;3.35;;;1.60;;
29538;SDS011;16482;51.046;4.498;2023-09-19T15:26:12;4.25;;;1.40;;
29538;SDS011;16482;51.046;4.498;2023-09-19T15:28:45;3.30;;;1.80;;
29538;SDS011;16482;51.046;4.498;2023-09-19T15:31:12;2.78;;;1.52;;
29538;SDS011;16482;51.046;4.498;2023-09-19T15:33:38;4.82;;;1.50;;
29538;SDS011;16482;51.046;4.498;2023-09-19T15:38:32;2.70;;;1.55;;
29538;SDS011;16482;51.046;4.498;2023-09-19T15:44:04;3.03;;;1.60;;
29538;SDS011;16482;51.046;4.498;2023-09-19T15:46:36;4.35;;;1.70;;
29538;SDS011;16482;51.046;4.498;2023-09-19T15:49:02;4.50;;;1.65;;
29538;SDS011;16482;51.046;4.498;2023-09-19T15:51:31;3.20;;;1.80;;
29538;SDS011;16482;51.046;4.498;2023-09-19T15:54:01;4.65;;;1.42;;
29538;SDS011;16482;51.046;4.498;2023-09-19T15:56:35;2.92;;;1.70;;
29538;SDS011;16482;51.046;4.498;2023-09-19T15:59:01;2.72;;;1.65;;
29538;SDS011;16482;51.046;4.498;2023-09-19T16:01:30;2.85;;;1.45;;
29538;SDS011;16482;51.046;4.498;2023-09-19T16:03:56;2.78;;;1.40;;
29538;SDS011;16482;51.046;4.498;2023-09-19T16:06:32;2.65;;;1.50;;
29538;SDS011;16482;51.046;4.498;2023-09-19T16:09:00;3.85;;;1.55;;